Dover Air Force Base
KDOV : now visible

Airfield :











YOU CAN JOIN US ON...

 
LOGIN :

Register | Disclaimer

   EN    FR    IT 

 









Legend :    VFR   Marginal VFR   IFR   Intensive IFR   Very Intensive IFR
Visi :
Ceiling :
>= 8 km
>= 3000ft
5 to 8 km
1000 to 3000 ft
1500m to 5 km
500 to 1000 ft
800 to 1500m
200 to 500 ft
< 800m
< 200 ft
Symbols :   Thunderstorms  Fog  Heavy snow  Heavy precipitations  Wind > 20 kt







- Airport Elevation : 24 ft


KDOV - Dover Air Force Base

CURRENT METAR :
  • 160856Z AUTO 31009KT 10SM BKN060 OVC100 07/M06 A2980 RMK AO2 SLP094 T00721065 52012 $

EXPIRED METARs :
  • 160756Z AUTO 31009KT 10SM OVC075 08/M07 A2978 RMK AO2 SLP088 T00791074 $
  • 160656Z AUTO 33009KT 10SM BKN075 OVC130 09/M07 A2978 RMK AO2 SLP088 T00871067 $

TAF TAF KDOV
Valid from the 16 at 08:00 until the 17 at 14:00 UTC


160800Z 1608/1714 33009KT 9999 BKN080 QNH2970INS
TEMPO 1608/1610 34012G20KT
BECMG 1617/1618 35007KT 9999 FEW080 FEW250 QNH2994INS WND 04007KT AFT 1710 TX08/1608Z TN00/1708Z
KZDC FIR / North America



MET'MAP, your aeronautical weather chart ! - Copyright ORBIFLY December 2007 - Disclaimer

ORBIFLY MET'MAP TEAM :

Programming & Development : Alexandra Zaïnal
Concept & Development : Baudouin d'Aumeries
Co-Development & Prog : Marc-Olivier Méhu
Technical & hardware support : Manuel Goepfert

Contact : metmap@orbifly.com




SOURCES & CREDITS :

   NOAA       Earth
Advisory